Latest Weather Observations for Marree Airport

IDS60801

Issued at 2:51 pm CDT Saturday 31 October 2020 (issued every 10 minutes, with the page automatically refreshed every 10 minutes)

About weather observations | Map of weather stations | Latest weather observations for SA | Other Formats
Station Details ID: 017126 Name: MARREE AERO Lat: -29.66 Lon: 138.07 Height: 50.0 m
Data from the previous 72 hours. | See also: Recent months at Marree Airport
Date/Time
CDT
Temp
°C
App
Temp
°C
Dew
Point
°C
Rel
Hum
%
Delta-T
°C
Wind Press
QNH
hPa
Press
MSL
hPa
Rain since
9am
mm
Dir  Spd
km/h
Gust
km/h
Spd
kts
Gust
kts
31/02:30pm 25.4 21.0 6.6 30 9.8 SW 19 28 10 15 1014.6 1014.4 0.0
31/02:00pm 24.9 22.1 7.1 32 9.3 SSE 11 26 6 14 1015.0 1014.8 0.0
31/01:30pm 23.7 21.7 6.9 34 8.7 S 7 19 4 10 1015.4 1015.2 0.0
31/01:00pm 23.8 21.5 7.4 35 8.6 WSW 9 20 5 11 1015.8 1015.6 0.0
31/12:30pm 22.2 19.1 7.2 38 7.7 SW 13 20 7 11 1016.1 1015.9 0.0
31/12:00pm 22.3 19.0 8.1 40 7.5 SW 15 22 8 12 1016.2 1016.0 0.0
31/11:30am 21.3 18.9 8.6 44 6.7 S 11 20 6 11 1016.6 1016.4 0.0
31/11:00am 21.1 18.5 9.4 47 6.3 SSW 13 30 7 16 1016.9 1016.7 0.0
31/10:30am 19.8 17.1 8.8 49 5.8 S 13 20 7 11 1017.1 1016.9 0.0
31/10:00am 18.8 14.9 8.7 52 5.3 S 19 26 10 14 1017.1 1016.9 0.0
31/09:30am 18.3 14.0 9.4 56 4.7 S 22 30 12 16 1016.9 1016.7 0.0
31/09:00am 17.1 12.8 9.5 61 4.0 SSW 22 30 12 16 1016.9 1016.7 0.0
31/08:30am 16.3 11.7 9.7 65 3.4 S 24 30 13 16 1016.6 1016.4 0.0
31/08:00am 15.2 10.9 9.3 68 3.0 S 22 28 12 15 1016.5 1016.3 0.0
31/07:30am 14.3 11.6 9.1 71 2.6 SSW 13 17 7 9 1016.3 1016.1 0.0
31/07:00am 13.4 9.6 9.1 75 2.2 SSW 19 24 10 13 1015.9 1015.7 0.0
31/06:30am 12.6 9.1 8.7 77 1.9 SSW 17 20 9 11 1015.6 1015.4 0.0
31/06:00am 12.9 10.2 8.8 76 2.1 SSW 13 17 7 9 1015.7 1015.5 0.0
31/05:30am 13.4 9.6 8.9 74 2.3 SSW 19 22 10 12 1015.8 1015.6 0.0
31/05:00am 13.6 9.7 8.7 72 2.5 SSW 19 24 10 13 1015.6 1015.4 0.0
31/04:30am 13.8 9.8 8.2 69 2.8 SSW 19 24 10 13 1015.4 1015.2 0.0
31/04:00am 14.2 8.9 8.4 68 2.9 S 26 33 14 18 1015.4 1015.2 0.0
31/03:30am 14.6 9.6 8.1 65 3.3 SSW 24 28 13 15 1015.4 1015.2 0.0
31/03:00am 14.7 10.6 8.0 64 3.3 SSW 19 26 10 14 1015.2 1015.0 0.0
31/02:30am 14.9 10.9 8.2 64 3.4 SSW 19 24 10 13 1015.2 1015.0 0.0
31/02:00am 15.2 11.2 8.4 64 3.4 SSW 19 26 10 14 1015.3 1015.1 0.0
31/01:30am 15.5 10.2 8.3 62 3.6 SSW 26 33 14 18 1015.2 1015.0 0.0
31/01:00am 15.8 10.0 8.1 60 3.9 S 28 35 15 19 1015.4 1015.2 0.0
31/12:30am 16.3 11.0 8.3 59 4.1 S 26 35 14 19 1015.7 1015.5 0.0
31/12:00am 16.6 11.7 8.3 58 4.2 S 24 30 13 16 1015.8 1015.6 0.0
 
Date/Time
CDT
Temp
°C
App
Temp
°C
Dew
Point
°C
Rel
Hum
%
Delta-T
°C
Wind Press
QNH
hPa
Press
MSL
hPa
Rain since
9am
mm
Dir  Spd
km/h
Gust
km/h
Spd
kts
Gust
kts
30/11:30pm 16.9 12.6 7.8 55 4.6 S 20 24 11 13 1015.6 1015.4 0.0
30/11:00pm 17.5 12.4 7.8 53 4.9 S 24 32 13 17 1015.7 1015.5 0.0
30/10:30pm 18.2 11.9 7.3 49 5.5 SSW 30 35 16 19 1015.5 1015.3 0.0
30/10:00pm 18.6 12.3 7.4 48 5.7 SSW 30 35 16 19 1015.3 1015.1 0.0
30/09:30pm 19.0 12.3 7.4 47 5.9 SW 32 39 17 21 1015.1 1014.9 0.0
30/09:00pm 19.4 12.6 7.8 47 6.0 SSW 33 43 18 23 1014.6 1014.4 0.0
30/08:30pm 19.7 12.9 7.8 46 6.1 SSW 33 43 18 23 1014.2 1014.0 0.0
30/08:00pm 20.0 12.1 7.7 45 6.3 SSW 39 48 21 26 1014.0 1013.8 0.0
30/07:30pm 20.6 11.7 6.9 41 7.0 SSW 43 54 23 29 1013.7 1013.5 0.0
30/07:00pm 21.4 12.9 6.9 39 7.4 SSW 41 52 22 28 1013.4 1013.2 0.0
30/06:30pm 21.8 12.3 6.9 38 7.6 SW 46 59 25 32 1013.1 1012.9 0.0
30/06:00pm 22.4 13.3 6.6 36 8.1 SSW 44 56 24 30 1012.8 1012.6 0.0
30/05:30pm 22.9 13.9 6.2 34 8.5 SSW 43 56 23 30 1012.6 1012.4 0.0
30/05:28pm 22.8 13.7 6.6 35 8.3 SSW 44 63 24 34 1012.6 1012.4 0.0
30/05:00pm 23.2 14.1 6.1 33 8.7 SSW 43 59 23 32 1012.4 1012.2 0.0
30/04:30pm 23.9 15.2 6.2 32 9.1 SSW 41 54 22 29 1012.4 1012.2 0.0
30/04:19pm 22.7 13.9 5.6 33 8.6 SSW 41 63 22 34 1012.3 1012.1 0.0
30/04:00pm 23.1 13.7 5.5 32 8.9 SSW 44 56 24 30 1012.6 1012.4 0.0
30/03:30pm 22.3 12.9 5.3 33 8.5 SW 44 59 24 32 1012.8 1012.6 0.0
30/03:00pm 23.6 15.2 5.5 31 9.2 SW 39 56 21 30 1013.0 1012.8 0.0
30/02:30pm 23.3 14.2 5.7 32 8.9 SW 43 61 23 33 1013.4 1013.2 0.0
30/02:02pm 22.7 14.3 5.6 33 8.6 SW 39 57 21 31 1013.7 1013.5 0.0
30/02:00pm 22.0 13.2 5.4 34 8.3 SW 41 57 22 31 1013.8 1013.6 0.0
30/01:57pm 21.9 13.4 5.3 34 8.3 SW 39 57 21 31 1013.7 1013.5 0.0
30/01:30pm 21.7 12.4 5.2 34 8.2 SW 43 56 23 30 1014.0 1013.8 0.0
30/01:00pm 22.3 12.9 5.3 33 8.5 SW 44 59 24 32 1014.1 1013.9 0.0
30/12:39pm 22.4 13.2 5.4 33 8.5 SW 43 61 23 33 1014.3 1014.1 0.0
30/12:30pm 21.8 12.5 5.7 35 8.1 SW 44 59 24 32 1014.2 1014.0 0.0
30/12:03pm 20.8 12.3 5.2 36 7.7 SW 39 57 21 31 1014.3 1014.1 0.0
30/12:00pm 20.3 11.8 5.1 37 7.5 SW 39 54 21 29 1014.4 1014.2 0.0
30/11:30am 20.1 11.8 6.1 40 7.0 SSW 39 54 21 29 1014.4 1014.2 0.0
30/11:17am 19.3 10.8 6.8 44 6.3 SW 41 59 22 32 1014.5 1014.3 0.0
30/11:00am 20.2 11.0 6.2 40 7.0 SW 44 57 24 31 1014.6 1014.4 0.0
30/10:30am 19.3 10.8 6.8 44 6.3 SW 41 54 22 29 1014.7 1014.5 0.0
30/10:00am 18.2 9.3 7.0 48 5.6 SW 43 54 23 29 1014.7 1014.5 0.0
30/09:30am 17.6 9.2 7.4 51 5.1 SW 41 56 22 30 1014.6 1014.4 0.0
30/09:00am 17.4 8.3 6.9 50 5.2 SW 44 56 24 30 1014.5 1014.3 0.0
30/08:30am 17.1 9.0 7.2 52 4.9 SW 39 48 21 26 1014.6 1014.4 0.0
30/08:00am 15.7 9.7 8.7 63 3.6 SW 30 39 16 21 1014.4 1014.2 0.0
30/07:30am 15.5 9.5 8.7 64 3.5 SW 30 37 16 20 1014.0 1013.8 0.0
30/07:00am 15.2 8.8 8.7 65 3.3 SW 32 41 17 22 1013.7 1013.5 0.0
30/06:30am 14.6 9.9 7.9 64 3.3 SW 22 30 12 16 1013.4 1013.2 0.0
30/06:00am 14.3 9.9 7.6 64 3.3 SW 20 26 11 14 1012.9 1012.7 0.0
30/05:30am 13.8 8.9 7.1 64 3.3 SW 22 28 12 15 1012.8 1012.6 0.0
30/05:00am 14.0 7.9 6.6 61 3.6 SW 28 33 15 18 1012.6 1012.4 0.0
30/04:30am 14.0 8.1 5.9 58 3.9 WSW 26 32 14 17 1012.5 1012.3 0.0
30/04:00am 14.1 7.4 5.5 56 4.1 WSW 30 41 16 22 1012.3 1012.1 0.0
30/03:30am 14.2 7.0 5.0 54 4.3 WSW 32 44 17 24 1012.0 1011.8 0.0
30/03:00am 14.4 5.8 4.7 52 4.5 SW 39 48 21 26 1011.9 1011.7 0.0
30/02:36am 14.7 6.1 4.4 50 4.8 SW 39 57 21 31 1012.1 1011.9 0.0
30/02:30am 14.8 5.4 4.5 50 4.8 SW 43 52 23 28 1012.0 1011.8 0.0
30/02:00am 15.2 5.5 3.7 46 5.3 SW 44 57 24 31 1011.9 1011.7 0.0
30/01:30am 15.5 6.2 2.7 42 5.8 SW 41 50 22 27 1012.1 1011.9 0.0
30/01:14am 15.8 5.0 1.9 39 6.2 SW 48 67 26 36 1012.2 1012.0 0.0
30/01:00am 16.0 4.4 1.7 38 6.3 SW 52 67 28 36 1012.2 1012.0 0.0
30/12:44am 16.4 5.9 1.7 37 6.5 SW 46 69 25 37 1012.1 1011.9 0.0
30/12:30am 16.9 5.7 1.8 36 6.8 SW 50 67 27 36 1012.2 1012.0 0.0
30/12:00am 17.5 6.6 1.5 34 7.2 SW 48 65 26 35 1012.3 1012.1 0.0
 
Date/Time
CDT
Temp
°C
App
Temp
°C
Dew
Point
°C
Rel
Hum
%
Delta-T
°C
Wind Press
QNH
hPa
Press
MSL
hPa
Rain since
9am
mm
Dir  Spd
km/h
Gust
km/h
Spd
kts
Gust
kts
29/11:53pm 17.6 7.1 1.2 33 7.3 SW 46 65 25 35 1012.3 1012.1 0.0
29/11:30pm 18.4 8.2 1.0 31 7.8 SW 44 56 24 30 1012.3 1012.1 0.0
29/11:03pm 19.0 8.9 0.1 28 8.3 SW 43 61 23 33 1012.2 1012.0 0.0
29/11:00pm 19.3 8.6 -0.1 27 8.5 SW 46 61 25 33 1012.1 1011.9 0.0
29/10:52pm 19.5 10.1 0.0 27 8.6 SW 39 57 21 31 1011.9 1011.7 0.0
29/10:30pm 20.0 8.8 -0.6 25 9.0 SW 48 59 26 32 1011.7 1011.5 0.0
29/10:00pm 21.1 10.8 0.3 25 9.3 SW 44 57 24 31 1011.3 1011.1 0.0
29/09:30pm 21.8 11.0 -0.8 22 10.0 SW 46 57 25 31 1010.8 1010.6 0.0
29/09:00pm 22.5 11.2 -1.6 20 10.6 SW 48 59 26 32 1010.3 1010.1 0.0
29/08:34pm 23.0 11.0 -1.1 20 10.7 SW 52 70 28 38 1010.0 1009.8 0.0
29/08:30pm 23.2 10.2 -1.0 20 10.8 SW 57 70 31 38 1009.8 1009.6 0.0
29/08:01pm 23.9 12.6 -4.3 15 11.9 SW 46 69 25 37 1009.2 1009.1 0.0
29/08:00pm 23.9 13.0 -4.3 15 11.9 SW 44 57 24 31 1009.4 1009.2 0.0
29/07:41pm 24.3 12.6 -1.5 18 11.5 SW 50 69 27 37 1008.7 1008.6 0.0
29/07:30pm 24.7 11.8 -0.4 19 11.5 SW 57 70 31 38 1008.3 1008.2 0.0
29/07:10pm 25.3 13.0 -3.2 15 12.4 SW 52 70 28 38 1007.8 1007.7 0.0
29/07:00pm 25.8 13.1 0.5 19 11.8 SW 57 69 31 37 1007.5 1007.4 0.0
29/06:30pm 26.9 14.1 2.7 21 11.9 SW 59 72 32 39 1006.8 1006.7 0.0
29/06:18pm 27.7 17.0 4.7 23 11.8 SW 50 69 27 37 1006.7 1006.6 0.0
29/06:00pm 28.7 17.0 6.1 24 11.9 SW 57 72 31 39 1006.5 1006.3 0.0
29/05:35pm 29.0 17.1 7.0 25 11.8 SW 59 78 32 42 1006.0 1005.8 0.0
29/05:30pm 29.1 16.8 7.1 25 11.9 SW 61 78 33 42 1005.8 1005.6 0.0
29/05:00pm 32.4 21.0 0.5 13 15.6 W 50 76 27 41 1004.6 1004.4 0.0
29/04:50pm 33.6 21.5 -5.2 8 17.5 WNW 50 70 27 38 1005.0 1004.8 0.0
29/04:47pm 33.6 22.2 -5.2 8 17.5 WNW 46 63 25 34 1005.1 1004.9 0.0
29/04:36pm 34.1 22.4 -4.8 8 17.7 WNW 48 72 26 39 1005.3 1005.1 0.0
29/04:30pm 33.8 22.1 -5.0 8 17.6 NW 48 72 26 39 1005.5 1005.3 0.0
29/04:28pm 33.9 22.2 -4.9 8 17.6 NW 48 72 26 39 1005.5 1005.3 0.0
29/04:27pm 34.1 22.0 -4.8 8 17.7 NW 50 72 27 39 1005.4 1005.2 0.0
29/04:00pm 33.5 24.0 -3.7 9 17.1 NW 37 57 20 31 1006.1 1005.9 0.0
29/03:30pm 33.5 22.8 -2.3 10 16.9 NW 44 63 24 34 1007.1 1007.0 0.0
29/03:03pm 32.0 21.4 -3.4 10 16.2 NW 43 61 23 33 1007.9 1007.8 0.0
29/03:00pm 31.9 21.1 -3.5 10 16.2 NW 44 61 24 33 1008.0 1007.9 0.0
29/02:39pm 31.8 23.0 -1.1 12 15.6 NNW 35 54 19 29 1008.7 1008.6 0.0
29/02:30pm 31.5 21.2 -1.3 12 15.5 NNW 43 54 23 29 1009.1 1009.0 0.0
29/02:04pm 30.6 20.9 -2.0 12 15.1 NNW 39 57 21 31 1010.0 1009.8 0.0
29/02:00pm 31.0 22.1 -1.7 12 15.3 NNW 35 48 19 26 1010.0 1009.8 0.0
29/01:30pm 30.3 21.7 -0.1 14 14.6 NNW 35 48 19 26 1010.3 1010.1 0.0
29/01:00pm 30.2 23.2 -0.2 14 14.5 NNW 26 39 14 21 1011.0 1010.8 0.0
29/12:30pm 30.2 23.3 2.5 17 13.9 NW 28 39 15 21 1012.0 1011.8 0.0
29/12:00pm 28.5 21.9 1.9 18 13.0 NNW 26 39 14 21 1012.8 1012.6 0.0
29/11:30am 28.1 20.4 2.3 19 12.7 N 32 44 17 24 1012.2 1012.0 0.0
29/11:00am 27.2 19.3 2.3 20 12.2 N 33 44 18 24 1012.5 1012.3 0.0
29/10:30am 26.6 19.5 3.8 23 11.4 NNE 30 39 16 21 1013.3 1013.1 0.0
29/10:00am 25.4 17.5 4.5 26 10.5 NNE 35 43 19 23 1013.3 1013.1 0.0
29/09:30am 24.2 16.0 4.6 28 9.8 NNE 37 46 20 25 1013.4 1013.2 0.0
29/09:00am 23.2 15.8 4.2 29 9.3 NNE 32 41 17 22 1013.6 1013.4 0.0
29/08:30am 21.4 16.5 4.9 34 8.1 NNE 20 26 11 14 1014.0 1013.8 0.0
29/08:00am 19.0 14.1 5.1 40 6.8 NNE 20 26 11 14 1014.1 1013.9 0.0
29/07:30am 16.2 13.5 5.5 49 5.1 NNE 9 13 5 7 1014.2 1014.0 0.0
29/07:00am 14.9 12.1 5.1 52 4.6 NNE 9 11 5 6 1014.0 1013.8 0.0
29/06:30am 15.1 11.5 5.0 51 4.8 N 13 13 7 7 1013.9 1013.7 0.0
29/06:00am 16.5 12.5 4.9 46 5.5 NE 15 20 8 11 1013.8 1013.6 0.0
29/05:30am 16.7 12.7 5.0 46 5.6 NE 15 17 8 9 1013.4 1013.2 0.0
29/05:00am 17.3 12.9 4.6 43 6.0 NE 17 20 9 11 1013.5 1013.3 0.0
29/04:30am 16.1 12.3 3.9 44 5.7 NE 13 17 7 9 1013.2 1013.0 0.0
29/04:00am 14.2 11.8 4.2 51 4.6 ESE 6 9 3 5 1013.7 1013.5 0.0
29/03:30am 14.7 11.0 4.7 51 4.7 E 13 17 7 9 1014.4 1014.2 0.0
29/03:00am 14.5 10.4 4.5 51 4.6 ESE 15 17 8 9 1015.2 1015.0 0.0
29/02:30am 15.0 11.2 3.8 47 5.1 SSE 13 13 7 7 1015.7 1015.5 0.0
29/02:00am 15.0 11.2 3.8 47 5.1 SSE 13 15 7 8 1015.8 1015.6 0.0
29/01:30am 15.7 12.3 3.8 45 5.5 S 11 11 6 6 1016.4 1016.2 0.0
29/01:00am 16.1 12.7 3.9 44 5.7 SSE 11 13 6 7 1016.3 1016.1 0.0
29/12:30am 16.8 12.9 3.5 41 6.1 S 13 13 7 7 1016.5 1016.3 0.0
29/12:00am 17.0 13.5 3.3 40 6.3 SSE 11 13 6 7 1016.7 1016.5 0.0
 
Date/Time
CDT
Temp
°C
App
Temp
°C
Dew
Point
°C
Rel
Hum
%
Delta-T
°C
Wind Press
QNH
hPa
Press
MSL
hPa
Rain since
9am
mm
Dir  Spd
km/h
Gust
km/h
Spd
kts
Gust
kts
28/11:30pm 17.8 13.9 3.3 38 6.7 SSE 13 15 7 8 1016.7 1016.5 0.0
28/11:00pm 19.1 15.2 3.3 35 7.4 S 13 15 7 8 1016.8 1016.6 0.0
28/10:30pm 19.8 15.5 3.5 34 7.7 SSW 15 15 8 8 1017.0 1016.8 0.0
28/10:00pm 20.6 16.3 3.3 32 8.2 SSW 15 17 8 9 1017.0 1016.8 0.0
28/09:30pm 21.7 17.0 3.4 30 8.8 SSW 17 20 9 11 1016.9 1016.7 0.0
28/09:00pm 22.3 17.6 2.9 28 9.2 SSW 17 17 9 9 1016.7 1016.5 0.0
28/08:30pm 23.0 18.3 3.0 27 9.6 SSW 17 19 9 10 1016.4 1016.2 0.0
28/08:00pm 24.2 19.7 2.4 24 10.4 SSW 15 17 8 9 1016.0 1015.8 0.0
28/07:30pm 25.4 20.8 1.5 21 11.4 SSW 15 19 8 10 1015.6 1015.4 0.0
28/07:00pm 26.3 21.7 1.6 20 11.8 SSW 15 22 8 12 1015.1 1014.9 0.0
28/06:30pm 27.1 22.5 1.5 19 12.3 SW 15 24 8 13 1014.9 1014.7 0.0
28/06:00pm 27.2 22.2 1.6 19 12.3 SW 17 26 9 14 1014.6 1014.4 0.0
28/05:30pm 27.3 21.8 1.7 19 12.4 SSW 20 32 11 17 1014.7 1014.5 0.0
28/05:00pm 27.6 23.4 1.9 19 12.5 SW 13 20 7 11 1014.8 1014.6 0.0
28/04:30pm 27.0 23.3 2.1 20 12.1 SW 11 20 6 11 1014.8 1014.6 0.0
28/04:00pm 26.6 21.7 1.8 20 12.0 SSW 17 22 9 12 1015.2 1015.0 0.0
28/03:30pm 26.6 21.8 2.5 21 11.8 SW 17 28 9 15 1015.5 1015.3 0.0
28/03:00pm 26.7 22.5 1.9 20 12.0 SSW 13 22 7 12 1015.9 1015.7 0.0

Other formats

Comma delimited format used in spreadsheet applications
http://www.bom.gov.au/fwo/IDS60801/IDS60801.95480.axf

JavaScript Object Notation format (JSON) in row-major order
http://www.bom.gov.au/fwo/IDS60801/IDS60801.95480.json

Data quality

Most of these data are generated automatically and are frequently updated. Quality checks on data are not normally performed. It is possible for incorrect values to appear. Refer to information at About Latest Weather Observations and please check the disclaimer before using these data.